< < Back
Terminal Aerodrome Forecast


Current Version              Previous Versions:   1  2  3  4  5  6  7  8  9  

Terminal Aerodrome Forecast

289
FTUS44 KOHX 280500
TAFBNA
TAF
KBNA 280527Z 2806/2906 01006KT P6SM SCT250
     FM281400 05010G18KT P6SM BKN250
     FM290100 02006KT P6SM OVC080=

Latest METAR

749
SAUS70 KWBC 281100 RRL
MTRBNA
METAR KBNA 281053Z 02008KT 10SM FEW250 08/04 A3000 RMK AO2 SLP155
T00780044


USA.gov is the U.S. government's official web portal to all federal, state and local government web resources and services.